IPGAR LIME-LIMG
Flight info
| Callsign | IPGAR |
|---|---|
| Flight time | N/A |
| Altitude | 2000 |
| Route | DCT |
| Aircraft | P28R/L-VGD/A |
Departure
| Time | N/A |
|---|---|
| Airport | Il Caravaggio International Airport (LIME) |
Arrival
| Time | 2026-04-21 20:20 |
|---|---|
| Airport | Riviera Villanova d'Albenga International Airport (LIMG) |
| Time | Latitude | Longitude | Altitude | Speed | Heading |
|---|---|---|---|---|---|
| 2026-04-21 19:40 | 45.13434 | 9.27411 | 1877 ft | 166 kts | 226° |
| 2026-04-21 19:40 | 45.12718 | 9.26118 | 1882 ft | 167 kts | 226° |
| 2026-04-21 19:40 | 45.11997 | 9.24822 | 1880 ft | 167 kts | 227° |
| 2026-04-21 19:40 | 45.11273 | 9.23526 | 1892 ft | 169 kts | 227° |
| 2026-04-21 19:41 | 45.10538 | 9.22204 | 1890 ft | 171 kts | 227° |
| 2026-04-21 19:41 | 45.09801 | 9.20875 | 1891 ft | 172 kts | 228° |
| 2026-04-21 19:41 | 45.09057 | 9.19541 | 1890 ft | 172 kts | 229° |
| 2026-04-21 19:41 | 45.08329 | 9.18229 | 1891 ft | 171 kts | 228° |
| 2026-04-21 19:42 | 45.07592 | 9.16908 | 1891 ft | 171 kts | 227° |
| 2026-04-21 19:42 | 45.06852 | 9.15583 | 1891 ft | 172 kts | 228° |
| 2026-04-21 19:42 | 45.06104 | 9.14247 | 1892 ft | 173 kts | 229° |
| 2026-04-21 19:42 | 45.05360 | 9.12910 | 1892 ft | 172 kts | 229° |
| 2026-04-21 19:43 | 45.04623 | 9.11585 | 1892 ft | 171 kts | 228° |
| 2026-04-21 19:43 | 45.03886 | 9.10270 | 1893 ft | 170 kts | 227° |
| 2026-04-21 19:43 | 45.03150 | 9.08956 | 1893 ft | 170 kts | 227° |
| 2026-04-21 19:43 | 45.02414 | 9.07638 | 1892 ft | 171 kts | 227° |
| 2026-04-21 19:44 | 45.01682 | 9.06336 | 1897 ft | 168 kts | 231° |
| 2026-04-21 19:44 | 45.00961 | 9.05044 | 1894 ft | 167 kts | 231° |
| 2026-04-21 19:44 | 45.00244 | 9.03762 | 1894 ft | 165 kts | 231° |
| 2026-04-21 19:44 | 44.99529 | 9.02486 | 1875 ft | 165 kts | 231° |
| 2026-04-21 19:45 | 44.98826 | 9.01232 | 1874 ft | 164 kts | 230° |
| 2026-04-21 19:45 | 44.98117 | 8.99969 | 1874 ft | 164 kts | 230° |
| 2026-04-21 19:45 | 44.97407 | 8.98705 | 1872 ft | 165 kts | 230° |
| 2026-04-21 19:45 | 44.96688 | 8.97449 | 1868 ft | 164 kts | 227° |
| 2026-04-21 19:46 | 44.95780 | 8.96510 | 1862 ft | 161 kts | 203° |
| 2026-04-21 19:46 | 44.94722 | 8.96043 | 1865 ft | 160 kts | 192° |
| 2026-04-21 19:46 | 44.93647 | 8.95613 | 1865 ft | 161 kts | 194° |
| 2026-04-21 19:46 | 44.92576 | 8.95107 | 1865 ft | 163 kts | 197° |
| 2026-04-21 19:47 | 44.91508 | 8.94577 | 1868 ft | 163 kts | 197° |
| 2026-04-21 19:47 | 44.90438 | 8.94050 | 1867 ft | 163 kts | 197° |
| 2026-04-21 19:47 | 44.89366 | 8.93518 | 1869 ft | 163 kts | 196° |
| 2026-04-21 19:47 | 44.88363 | 8.93027 | 2200 ft | 143 kts | 197° |
| 2026-04-21 19:48 | 44.87420 | 8.92571 | 2375 ft | 145 kts | 196° |
| 2026-04-21 19:48 | 44.86470 | 8.92103 | 2542 ft | 144 kts | 197° |
| 2026-04-21 19:48 | 44.85535 | 8.91643 | 2702 ft | 145 kts | 197° |
| 2026-04-21 19:48 | 44.84588 | 8.91178 | 2815 ft | 144 kts | 197° |
| 2026-04-21 19:49 | 44.83656 | 8.90721 | 3039 ft | 137 kts | 199° |
| 2026-04-21 19:49 | 44.82760 | 8.90284 | 3195 ft | 138 kts | 199° |
| 2026-04-21 19:49 | 44.81865 | 8.89843 | 3386 ft | 135 kts | 199° |
| 2026-04-21 19:49 | 44.80970 | 8.89404 | 3527 ft | 137 kts | 199° |
| 2026-04-21 19:50 | 44.80369 | 8.89108 | 3618 ft | 138 kts | 199° |
| 2026-04-21 19:50 | 44.79160 | 8.88515 | 3847 ft | 137 kts | 199° |
| 2026-04-21 19:50 | 44.78254 | 8.88072 | 3933 ft | 142 kts | 199° |
| 2026-04-21 19:50 | 44.77277 | 8.87580 | 3759 ft | 153 kts | 199° |
| 2026-04-21 19:51 | 44.76243 | 8.87142 | 3571 ft | 158 kts | 196° |
| 2026-04-21 19:51 | 44.75172 | 8.86768 | 3417 ft | 157 kts | 193° |
| 2026-04-21 19:51 | 44.74108 | 8.86432 | 3300 ft | 155 kts | 192° |
| 2026-04-21 19:51 | 44.73063 | 8.86072 | 3175 ft | 155 kts | 195° |
| 2026-04-21 19:52 | 44.72066 | 8.85524 | 2981 ft | 158 kts | 211° |
| 2026-04-21 19:52 | 44.71159 | 8.84646 | 2787 ft | 159 kts | 210° |
| 2026-04-21 19:52 | 44.70135 | 8.84056 | 2595 ft | 159 kts | 199° |
| 2026-04-21 19:52 | 44.69087 | 8.83563 | 2477 ft | 155 kts | 198° |
| 2026-04-21 19:53 | 44.68218 | 8.82803 | 2547 ft | 144 kts | 224° |
| 2026-04-21 19:53 | 44.67782 | 8.81548 | 2484 ft | 145 kts | 263° |
| 2026-04-21 19:53 | 44.68058 | 8.80228 | 2456 ft | 145 kts | 305° |
| 2026-04-21 19:53 | 44.68921 | 8.79525 | 2333 ft | 149 kts | 352° |
| 2026-04-21 19:54 | 44.69900 | 8.79934 | 2218 ft | 151 kts | 36° |
| 2026-04-21 19:54 | 44.70429 | 8.81166 | 2145 ft | 150 kts | 77° |
| 2026-04-21 19:54 | 44.70427 | 8.82496 | 2477 ft | 123 kts | 100° |
| 2026-04-21 19:54 | 44.70122 | 8.83495 | 2801 ft | 104 kts | 131° |
| 2026-04-21 19:55 | 44.69524 | 8.83733 | 3076 ft | 89 kts | 205° |
| 2026-04-21 19:55 | 44.69004 | 8.83374 | 3143 ft | 92 kts | 182° |
| 2026-04-21 19:55 | 44.68410 | 8.83058 | 3267 ft | 94 kts | 215° |
| 2026-04-21 19:55 | 44.67851 | 8.82557 | 3372 ft | 99 kts | 198° |
| 2026-04-21 19:56 | 44.67181 | 8.82357 | 3515 ft | 99 kts | 191° |
| 2026-04-21 19:56 | 44.66513 | 8.82122 | 3674 ft | 99 kts | 193° |
| 2026-04-21 19:56 | 44.65846 | 8.81852 | 3815 ft | 100 kts | 193° |
| 2026-04-21 19:56 | 44.65183 | 8.81546 | 3953 ft | 101 kts | 199° |
| 2026-04-21 19:57 | 44.64516 | 8.81242 | 4109 ft | 101 kts | 198° |
| 2026-04-21 19:57 | 44.63850 | 8.80938 | 4258 ft | 102 kts | 197° |
| 2026-04-21 19:57 | 44.63141 | 8.80617 | 4479 ft | 111 kts | 198° |
| 2026-04-21 19:57 | 44.62391 | 8.80276 | 4754 ft | 115 kts | 198° |
| 2026-04-21 19:58 | 44.61624 | 8.79933 | 4960 ft | 124 kts | 198° |
| 2026-04-21 19:58 | 44.60708 | 8.79512 | 4890 ft | 149 kts | 199° |
| 2026-04-21 19:58 | 44.59681 | 8.79046 | 4881 ft | 159 kts | 198° |
| 2026-04-21 19:58 | 44.58608 | 8.78563 | 4880 ft | 164 kts | 198° |
| 2026-04-21 19:59 | 44.57514 | 8.78071 | 4880 ft | 166 kts | 198° |
| 2026-04-21 19:59 | 44.56410 | 8.77575 | 4877 ft | 167 kts | 198° |
| 2026-04-21 19:59 | 44.55316 | 8.77082 | 4877 ft | 168 kts | 198° |
| 2026-04-21 19:59 | 44.54202 | 8.76582 | 4876 ft | 168 kts | 198° |
| 2026-04-21 20:00 | 44.53101 | 8.76090 | 4873 ft | 168 kts | 198° |
| 2026-04-21 20:00 | 44.51988 | 8.75593 | 4873 ft | 168 kts | 198° |
| 2026-04-21 20:00 | 44.50874 | 8.75097 | 4874 ft | 168 kts | 198° |
| 2026-04-21 20:00 | 44.49760 | 8.74599 | 4873 ft | 168 kts | 198° |
| 2026-04-21 20:01 | 44.48645 | 8.74101 | 4902 ft | 169 kts | 198° |
| 2026-04-21 20:01 | 44.47528 | 8.73601 | 4902 ft | 168 kts | 198° |
| 2026-04-21 20:01 | 44.46479 | 8.72892 | 4852 ft | 169 kts | 216° |
| 2026-04-21 20:01 | 44.45695 | 8.71663 | 4805 ft | 170 kts | 238° |
| 2026-04-21 20:02 | 44.45051 | 8.70317 | 4876 ft | 165 kts | 233° |
| 2026-04-21 20:02 | 44.44161 | 8.69235 | 4674 ft | 169 kts | 216° |
| 2026-04-21 20:02 | 44.43187 | 8.68350 | 4534 ft | 166 kts | 214° |
| 2026-04-21 20:02 | 44.42214 | 8.67438 | 4209 ft | 171 kts | 215° |
| 2026-04-21 20:03 | 44.41251 | 8.66493 | 4031 ft | 167 kts | 216° |
| 2026-04-21 20:03 | 44.40297 | 8.65561 | 3801 ft | 168 kts | 216° |
| 2026-04-21 20:03 | 44.39343 | 8.64629 | 3657 ft | 165 kts | 215° |
| 2026-04-21 20:03 | 44.38509 | 8.63525 | 3401 ft | 169 kts | 233° |
| 2026-04-21 20:04 | 44.37898 | 8.62194 | 3252 ft | 165 kts | 240° |
| 2026-04-21 20:04 | 44.37296 | 8.60882 | 3173 ft | 162 kts | 238° |
| 2026-04-21 20:04 | 44.36657 | 8.59563 | 2956 ft | 165 kts | 237° |
| 2026-04-21 20:04 | 44.36008 | 8.58242 | 2804 ft | 164 kts | 237° |
| 2026-04-21 20:05 | 44.35364 | 8.56934 | 2673 ft | 163 kts | 237° |
| 2026-04-21 20:05 | 44.34722 | 8.55624 | 2529 ft | 163 kts | 237° |
| 2026-04-21 20:05 | 44.34083 | 8.54323 | 2410 ft | 161 kts | 237° |
| 2026-04-21 20:05 | 44.33447 | 8.53029 | 2270 ft | 162 kts | 237° |
| 2026-04-21 20:06 | 44.32811 | 8.51738 | 2158 ft | 161 kts | 237° |
| 2026-04-21 20:06 | 44.32177 | 8.50446 | 2022 ft | 161 kts | 237° |
| 2026-04-21 20:06 | 44.31544 | 8.49155 | 1914 ft | 160 kts | 237° |
| 2026-04-21 20:06 | 44.30912 | 8.47880 | 1810 ft | 159 kts | 236° |
| 2026-04-21 20:07 | 44.30135 | 8.46824 | 1815 ft | 154 kts | 219° |
| 2026-04-21 20:07 | 44.29291 | 8.45912 | 1812 ft | 153 kts | 219° |
| 2026-04-21 20:07 | 44.28745 | 8.45297 | 1814 ft | 152 kts | 220° |
| 2026-04-21 20:07 | 44.27464 | 8.44507 | 1811 ft | 153 kts | 188° |
| 2026-04-21 20:08 | 44.26409 | 8.44579 | 1811 ft | 151 kts | 172° |
| 2026-04-21 20:08 | 44.25361 | 8.44753 | 1812 ft | 152 kts | 173° |
| 2026-04-21 20:08 | 44.24318 | 8.44920 | 1813 ft | 151 kts | 173° |
| 2026-04-21 20:08 | 44.23274 | 8.45087 | 1812 ft | 151 kts | 173° |
| 2026-04-21 20:09 | 44.22230 | 8.45204 | 1812 ft | 150 kts | 180° |
| 2026-04-21 20:09 | 44.21188 | 8.45060 | 1812 ft | 150 kts | 192° |
| 2026-04-21 20:09 | 44.20171 | 8.44719 | 1810 ft | 151 kts | 193° |
| 2026-04-21 20:09 | 44.19159 | 8.44347 | 1809 ft | 150 kts | 200° |
| 2026-04-21 20:10 | 44.18312 | 8.43520 | 1813 ft | 150 kts | 227° |
| 2026-04-21 20:10 | 44.17795 | 8.42271 | 1813 ft | 150 kts | 248° |
| 2026-04-21 20:10 | 44.17388 | 8.40948 | 1817 ft | 150 kts | 247° |
| 2026-04-21 20:10 | 44.17006 | 8.39601 | 1813 ft | 150 kts | 254° |
| 2026-04-21 20:11 | 44.16725 | 8.38201 | 1816 ft | 150 kts | 255° |
| 2026-04-21 20:11 | 44.16440 | 8.36805 | 1817 ft | 150 kts | 255° |
| 2026-04-21 20:11 | 44.16160 | 8.35404 | 1817 ft | 150 kts | 255° |
| 2026-04-21 20:11 | 44.15882 | 8.34003 | 1813 ft | 150 kts | 255° |
| 2026-04-21 20:12 | 44.15599 | 8.32613 | 1814 ft | 149 kts | 255° |
| 2026-04-21 20:12 | 44.15313 | 8.31228 | 1814 ft | 149 kts | 255° |
| 2026-04-21 20:12 | 44.15124 | 8.30311 | 1813 ft | 148 kts | 255° |
| 2026-04-21 20:12 | 44.14493 | 8.28604 | 1805 ft | 149 kts | 236° |
| 2026-04-21 20:13 | 44.13778 | 8.27559 | 1813 ft | 149 kts | 223° |
| 2026-04-21 20:13 | 44.12995 | 8.26604 | 1813 ft | 150 kts | 223° |
| 2026-04-21 20:13 | 44.12223 | 8.25631 | 1819 ft | 150 kts | 223° |
| 2026-04-21 20:13 | 44.11394 | 8.24750 | 1814 ft | 150 kts | 211° |
| 2026-04-21 20:14 | 44.10488 | 8.24016 | 1813 ft | 151 kts | 210° |
| 2026-04-21 20:14 | 44.09534 | 8.23407 | 1809 ft | 151 kts | 200° |
| 2026-04-21 20:14 | 44.08541 | 8.22931 | 1813 ft | 151 kts | 199° |
| 2026-04-21 20:14 | 44.07550 | 8.22447 | 1812 ft | 151 kts | 199° |
| 2026-04-21 20:15 | 44.06570 | 8.21969 | 1811 ft | 151 kts | 199° |
| 2026-04-21 20:15 | 44.05560 | 8.21551 | 1807 ft | 151 kts | 194° |
| 2026-04-21 20:15 | 44.04545 | 8.21189 | 1807 ft | 151 kts | 194° |
| 2026-04-21 20:15 | 44.03528 | 8.20824 | 1810 ft | 151 kts | 194° |
| 2026-04-21 20:16 | 44.02500 | 8.20549 | 1806 ft | 151 kts | 182° |
| 2026-04-21 20:16 | 44.01481 | 8.20838 | 1806 ft | 150 kts | 157° |
| 2026-04-21 20:16 | 44.00981 | 8.21979 | 1804 ft | 146 kts | 86° |
| 2026-04-21 20:16 | 44.01606 | 8.22968 | 1816 ft | 141 kts | 24° |
| 2026-04-21 20:17 | 44.02506 | 8.23368 | 1831 ft | 132 kts | 17° |
| 2026-04-21 20:17 | 44.03409 | 8.23553 | 1798 ft | 133 kts | 359° |
| 2026-04-21 20:17 | 44.04258 | 8.23142 | 1848 ft | 128 kts | 323° |
| 2026-04-21 20:17 | 44.04630 | 8.22066 | 1640 ft | 134 kts | 278° |
| 2026-04-21 20:18 | 44.04709 | 8.21233 | 1526 ft | 124 kts | 279° |
| 2026-04-21 20:18 | 44.04764 | 8.19862 | 1305 ft | 91 kts | 272° |
| 2026-04-21 20:18 | 44.04785 | 8.19035 | 1113 ft | 83 kts | 274° |
| 2026-04-21 20:18 | 44.04831 | 8.18239 | 962 ft | 83 kts | 275° |
| 2026-04-21 20:19 | 44.04841 | 8.17445 | 833 ft | 83 kts | 270° |
| 2026-04-21 20:19 | 44.04879 | 8.16672 | 698 ft | 78 kts | 274° |
| 2026-04-21 20:19 | 44.04902 | 8.16164 | 610 ft | 77 kts | 273° |
| 2026-04-21 20:19 | 44.04930 | 8.15436 | 483 ft | 75 kts | 272° |
| 2026-04-21 20:20 | 44.04972 | 8.14719 | 360 ft | 74 kts | 271° |
| 2026-04-21 20:20 | 44.05003 | 8.14018 | 230 ft | 71 kts | 272° |
| 2026-04-21 20:20 | 44.05021 | 8.13416 | 123 ft | 50 kts | 270° |
| 2026-04-21 20:20 | 44.05010 | 8.13175 | 130 ft | 13 kts | 189° |
| 2026-04-21 20:21 | 44.04908 | 8.13167 | 134 ft | 21 kts | 184° |
| 2026-04-21 20:21 | 44.04769 | 8.13160 | 135 ft | 14 kts | 139° |
| 2026-04-21 20:21 | 44.04785 | 8.13218 | 130 ft | 0 kts | 268° |